Impacts TAF Board
For situational awareness. Not to be used for flight planning purposes.
IDs:

KLAS - Las Vegas/McCarran I, NV, US

Issued at 1120 UTC 23 Mar 2019
Updated at 1228 UTC 23 Mar 2019
Potential Impact None Slight Moderate High
Time<<24/13Z 24/14Z 24/15Z 24/16Z 24/17Z 24/18Z 24/19Z 24/20Z 24/21Z 24/22Z 24/23Z 25/00Z 25/01Z
Type PRVL PRVL PRVL PRVL PRVL
VIS >6 >6 >6 >6 >6
CIG -- -- -- -- --
Cover FEW FEW FEW FEW FEW
FltCat VFR VFR VFR VFR VFR
WX -- -- -- -- --
WDir 220 220 220 220 220
WSpd 11 11 11 11 11
WGst -- -- -- -- --
Raw TAF
KLAS 231120Z 2312/2418 21006KT P6SM FEW100 BKN200
  FM231900 21012G22KT P6SM FEW100 SCT200
  FM240400 22011KT P6SM FEW100


METAR Board
Radar Display
Forecast Discussion
For situational awareness. Not to be used for flight planning purposes.